createdAt,value
2018-05-31T00:00:47.029Z,19.30
2018-05-31T00:03:14.509Z,19.30
2018-05-31T00:05:42.000Z,19.20
2018-05-31T00:08:10.271Z,19.30
2018-05-31T00:10:37.736Z,19.20
2018-05-31T00:13:05.985Z,19.40
2018-05-31T00:15:33.472Z,19.30
2018-05-31T00:18:01.709Z,19.20
2018-05-31T00:20:29.290Z,19.10
2018-05-31T00:22:56.773Z,19.10
2018-05-31T00:25:24.252Z,19.10
2018-05-31T00:27:51.727Z,19.00
2018-05-31T00:30:19.437Z,19.00
2018-05-31T00:32:47.749Z,18.90
2018-05-31T00:35:15.209Z,18.90
2018-05-31T00:37:42.763Z,19.00
2018-05-31T00:40:10.249Z,19.10
2018-05-31T00:42:37.726Z,19.00
2018-05-31T00:45:05.275Z,19.00
2018-05-31T00:47:32.757Z,18.90
2018-05-31T00:50:00.993Z,18.80
2018-05-31T00:52:28.492Z,18.80
2018-05-31T00:54:56.765Z,18.80
2018-05-31T00:57:25.019Z,18.70
2018-05-31T00:59:52.523Z,18.70
2018-05-31T01:02:19.999Z,18.70
2018-05-31T01:04:47.468Z,18.60
2018-05-31T01:07:14.957Z,18.60
2018-05-31T01:09:42.429Z,18.70
2018-05-31T01:12:10.663Z,18.70
2018-05-31T01:14:38.181Z,18.70
2018-05-31T01:17:05.715Z,18.70
2018-05-31T01:19:33.967Z,18.60
2018-05-31T01:22:01.457Z,18.60
2018-05-31T01:24:29.766Z,18.70
2018-05-31T01:26:57.245Z,18.70
2018-05-31T01:29:24.722Z,18.80
2018-05-31T01:31:52.185Z,18.80
2018-05-31T01:34:20.439Z,18.70
2018-05-31T01:36:47.929Z,18.70
2018-05-31T01:39:18.245Z,18.60
2018-05-31T01:41:46.492Z,18.50
2018-05-31T01:44:13.968Z,18.50
2018-05-31T01:46:42.291Z,18.50
2018-05-31T01:49:09.778Z,18.50
2018-05-31T01:51:37.243Z,18.50
2018-05-31T01:54:04.710Z,18.40
2018-05-31T01:56:32.980Z,18.40
2018-05-31T01:59:00.450Z,18.30
2018-05-31T02:01:28.704Z,18.40
2018-05-31T02:03:56.186Z,18.30
2018-05-31T02:06:24.417Z,18.40
2018-05-31T02:08:51.914Z,18.40
2018-05-31T02:11:20.146Z,18.40
2018-05-31T02:13:47.608Z,18.40
2018-05-31T02:16:15.088Z,18.30
2018-05-31T02:18:42.628Z,18.30
2018-05-31T02:21:10.097Z,18.10
2018-05-31T02:23:37.600Z,18.10
2018-05-31T02:26:05.086Z,18.00
2018-05-31T02:28:32.562Z,18.00
2018-05-31T02:31:00.087Z,18.10
2018-05-31T02:33:27.560Z,18.10
2018-05-31T02:35:55.143Z,18.20
2018-05-31T02:38:22.712Z,18.20
2018-05-31T02:40:50.193Z,18.20
2018-05-31T02:43:19.041Z,18.20
2018-05-31T02:45:46.525Z,18.20
2018-05-31T02:48:14.761Z,18.60
2018-05-31T02:50:42.332Z,18.60
2018-05-31T02:53:09.904Z,18.70
2018-05-31T02:55:37.378Z,18.70
2018-05-31T02:58:05.736Z,18.90
2018-05-31T03:00:33.216Z,18.90
2018-05-31T03:03:01.449Z,19.00
2018-05-31T03:05:28.925Z,19.00
2018-05-31T03:07:56.406Z,19.00
2018-05-31T03:10:24.673Z,19.10
2018-05-31T03:12:52.914Z,19.20
2018-05-31T03:15:20.430Z,19.20
2018-05-31T03:17:47.949Z,19.20
2018-05-31T03:20:15.421Z,19.20
2018-05-31T03:22:43.805Z,19.30
2018-05-31T03:25:12.067Z,19.30
2018-05-31T03:27:39.619Z,19.30
2018-05-31T03:30:07.093Z,19.30
2018-05-31T03:32:35.424Z,19.20
2018-05-31T03:35:02.961Z,19.20
2018-05-31T03:37:30.461Z,19.20
2018-05-31T03:39:57.941Z,19.20
2018-05-31T03:42:26.187Z,19.20
2018-05-31T03:44:53.664Z,19.20
2018-05-31T03:47:21.916Z,19.30
2018-05-31T03:49:49.372Z,19.30
2018-05-31T03:52:16.949Z,19.30
2018-05-31T03:54:44.427Z,19.40
2018-05-31T03:57:12.677Z,19.40
2018-05-31T03:59:40.144Z,19.40
2018-05-31T04:02:08.410Z,19.40
2018-05-31T04:04:35.889Z,19.40
2018-05-31T04:07:04.152Z,19.40
2018-05-31T04:09:32.394Z,19.40
2018-05-31T04:11:59.879Z,19.40
2018-05-31T04:14:28.121Z,19.40
2018-05-31T04:16:55.590Z,19.40
2018-05-31T04:19:23.168Z,19.50
2018-05-31T04:21:50.650Z,19.70
2018-05-31T04:24:18.127Z,19.90
2018-05-31T04:26:45.621Z,19.90
2018-05-31T04:29:13.126Z,19.90
2018-05-31T04:31:40.606Z,20.10
2018-05-31T04:34:08.072Z,20.20
2018-05-31T04:36:35.552Z,20.20
2018-05-31T04:39:03.040Z,20.10
2018-05-31T04:41:31.272Z,20.10
2018-05-31T04:43:58.813Z,20.10
2018-05-31T04:46:26.400Z,20.20
2018-05-31T04:48:53.876Z,20.40
2018-05-31T04:51:22.104Z,20.60
2018-05-31T04:53:49.650Z,20.60
2018-05-31T04:56:17.157Z,20.70
2018-05-31T04:58:44.633Z,20.80
2018-05-31T05:01:12.872Z,21.80
2018-05-31T05:03:40.337Z,21.70
2018-05-31T05:06:07.806Z,22.70
2018-05-31T05:08:36.145Z,24.10
2018-05-31T05:11:03.626Z,24.00
2018-05-31T05:13:31.083Z,24.40
2018-05-31T05:15:58.574Z,24.80
2018-05-31T05:18:26.050Z,24.80
2018-05-31T05:20:53.525Z,24.50
2018-05-31T05:23:21.013Z,24.60
2018-05-31T05:25:48.486Z,24.60
2018-05-31T05:28:16.729Z,24.90
2018-05-31T05:30:44.201Z,24.90
2018-05-31T05:33:12.536Z,25.20
2018-05-31T05:35:40.033Z,25.20
2018-05-31T05:38:08.264Z,25.50
2018-05-31T05:40:35.749Z,25.50
2018-05-31T05:43:03.256Z,25.10
2018-05-31T05:45:30.716Z,24.20
2018-05-31T05:47:58.204Z,23.80
2018-05-31T05:50:25.673Z,23.40
2018-05-31T05:52:53.146Z,23.10
2018-05-31T05:55:20.801Z,23.20
2018-05-31T05:57:48.261Z,23.10
2018-05-31T06:00:15.741Z,22.90
2018-05-31T06:02:44.114Z,22.80
2018-05-31T06:05:11.592Z,22.70
2018-05-31T06:07:39.102Z,22.60
2018-05-31T06:10:06.754Z,22.40
2018-05-31T06:12:35.009Z,22.20
2018-05-31T06:15:02.478Z,22.10
2018-05-31T06:17:29.953Z,22.20
2018-05-31T06:19:57.413Z,22.20
2018-05-31T06:22:24.880Z,22.40
2018-05-31T06:24:52.369Z,22.30
2018-05-31T06:27:19.849Z,22.20
2018-05-31T06:29:47.311Z,22.00
2018-05-31T06:32:14.804Z,22.10
2018-05-31T06:34:42.318Z,22.40
2018-05-31T06:37:09.991Z,22.70
2018-05-31T06:39:38.195Z,22.60
2018-05-31T06:42:05.649Z,22.50
2018-05-31T06:44:34.805Z,22.40
2018-05-31T06:47:02.291Z,22.40
2018-05-31T06:49:29.917Z,22.50
2018-05-31T06:51:57.378Z,22.60
2018-05-31T06:54:24.938Z,22.70
2018-05-31T06:56:52.345Z,22.70
2018-05-31T06:59:21.308Z,23.10
2018-05-31T07:01:48.802Z,23.00
2018-05-31T07:04:17.847Z,23.50
2018-05-31T07:06:45.313Z,23.50
2018-05-31T07:09:12.801Z,23.60
2018-05-31T07:11:40.270Z,23.50
2018-05-31T07:14:08.510Z,23.50
2018-05-31T07:16:35.996Z,23.50
2018-05-31T07:19:03.620Z,23.50
2018-05-31T07:21:31.069Z,23.40
2018-05-31T07:23:58.550Z,23.30
2018-05-31T07:26:26.797Z,23.20
2018-05-31T07:28:54.316Z,23.20
2018-05-31T07:31:22.552Z,23.30
2018-05-31T07:33:50.025Z,23.30
2018-05-31T07:36:18.297Z,23.40
2018-05-31T07:38:45.774Z,23.30
2018-05-31T07:41:13.234Z,23.10
2018-05-31T07:43:41.478Z,22.80
2018-05-31T07:46:08.948Z,22.80
2018-05-31T07:48:36.430Z,22.80
2018-05-31T07:51:04.671Z,23.00
2018-05-31T07:53:32.934Z,23.20
2018-05-31T07:56:00.402Z,23.20
2018-05-31T07:58:27.876Z,23.30
2018-05-31T08:00:55.345Z,23.40
2018-05-31T08:03:23.602Z,23.30
2018-05-31T08:05:51.898Z,23.40
2018-05-31T08:08:19.337Z,23.40
2018-05-31T08:10:47.565Z,23.60
2018-05-31T08:13:15.080Z,23.50
2018-05-31T08:15:43.305Z,23.40
2018-05-31T08:18:10.787Z,23.40
2018-05-31T08:20:38.422Z,23.40
2018-05-31T08:23:05.879Z,23.40
2018-05-31T08:25:33.345Z,23.30
2018-05-31T08:28:00.841Z,23.30
2018-05-31T08:30:29.185Z,23.30
2018-05-31T08:32:56.695Z,23.30
2018-05-31T08:35:24.183Z,23.30
2018-05-31T08:37:51.657Z,23.30
2018-05-31T08:40:19.117Z,23.10
2018-05-31T08:42:46.597Z,23.20
2018-05-31T08:45:14.836Z,22.90
2018-05-31T08:47:42.320Z,22.90
2018-05-31T08:50:10.569Z,22.80
2018-05-31T08:52:38.037Z,22.80
2018-05-31T08:55:05.495Z,22.80
2018-05-31T08:57:33.002Z,22.80
2018-05-31T09:00:00.478Z,22.70
2018-05-31T09:02:27.945Z,22.70
2018-05-31T09:04:55.501Z,22.80
2018-05-31T09:07:22.969Z,22.90
2018-05-31T09:09:50.430Z,22.80
2018-05-31T09:12:17.914Z,22.90
2018-05-31T09:14:45.385Z,22.80
2018-05-31T09:17:12.843Z,22.80
2018-05-31T09:19:41.132Z,22.70
2018-05-31T09:22:08.622Z,22.60
2018-05-31T09:24:36.090Z,22.70
2018-05-31T09:27:03.593Z,22.70
2018-05-31T09:29:31.058Z,22.80
2018-05-31T09:31:58.556Z,22.80
2018-05-31T09:34:26.013Z,22.80
2018-05-31T09:36:53.485Z,22.80
2018-05-31T09:39:20.961Z,22.80
2018-05-31T09:41:49.203Z,23.30
2018-05-31T09:44:16.673Z,23.30
2018-05-31T09:46:45.656Z,23.20
2018-05-31T09:49:13.137Z,23.20
2018-05-31T09:51:41.385Z,22.90
2018-05-31T09:54:08.857Z,22.90
2018-05-31T09:56:36.333Z,23.00
2018-05-31T09:59:04.590Z,23.00
2018-05-31T10:01:32.060Z,23.10
2018-05-31T10:04:00.289Z,23.20
2018-05-31T10:06:27.791Z,23.20
2018-05-31T10:08:56.033Z,22.90
2018-05-31T10:11:23.484Z,22.90
2018-05-31T10:13:50.978Z,23.10
2018-05-31T10:16:19.194Z,23.00
2018-05-31T10:18:46.697Z,23.00
2018-05-31T10:21:14.969Z,23.00
2018-05-31T10:23:42.469Z,23.00
2018-05-31T10:26:09.959Z,23.40
2018-05-31T10:28:37.417Z,23.40
2018-05-31T10:31:04.879Z,23.70
2018-05-31T10:33:32.371Z,23.80
2018-05-31T10:36:00.605Z,24.10
2018-05-31T10:38:28.085Z,24.10
2018-05-31T10:40:55.550Z,24.10
2018-05-31T10:43:23.805Z,24.70
2018-05-31T10:45:51.266Z,24.60
2018-05-31T10:48:18.724Z,24.90
2018-05-31T10:50:48.182Z,25.30
2018-05-31T10:53:16.374Z,25.30
2018-05-31T10:55:44.011Z,25.10
2018-05-31T10:58:11.515Z,25.30
2018-05-31T11:00:39.338Z,25.20
2018-05-31T11:03:06.868Z,25.30
2018-05-31T11:05:35.282Z,24.70
2018-05-31T11:08:02.957Z,24.70
2018-05-31T11:10:30.524Z,24.70
2018-05-31T11:12:58.004Z,25.20
2018-05-31T11:15:26.271Z,26.10
2018-05-31T11:17:54.568Z,25.50
2018-05-31T11:20:22.942Z,25.20
2018-05-31T11:22:51.381Z,25.50
2018-05-31T11:25:19.266Z,25.50
2018-05-31T11:27:46.889Z,25.90
2018-05-31T11:30:14.545Z,26.40
2018-05-31T11:32:42.413Z,26.30
2018-05-31T11:35:10.174Z,26.30
2018-05-31T11:37:37.639Z,26.50
2018-05-31T11:40:05.126Z,26.60
2018-05-31T11:42:32.593Z,26.60
2018-05-31T11:45:00.056Z,26.90
2018-05-31T11:47:27.554Z,27.00
2018-05-31T11:49:55.116Z,27.10
2018-05-31T11:52:22.585Z,27.00
2018-05-31T11:54:50.070Z,26.90
2018-05-31T11:57:17.534Z,26.70
2018-05-31T11:59:44.998Z,26.70
2018-05-31T12:02:12.487Z,26.70
2018-05-31T12:07:21.382Z,25.70
2018-05-31T12:09:50.348Z,25.90
2018-05-31T12:12:17.865Z,25.80
2018-05-31T12:14:45.297Z,26.00
2018-05-31T12:17:12.784Z,26.20
2018-05-31T12:19:41.037Z,26.70
2018-05-31T12:22:09.281Z,26.60
2018-05-31T12:24:36.750Z,26.60
2018-05-31T12:27:05.041Z,27.00
2018-05-31T12:29:33.272Z,27.00
2018-05-31T12:32:00.765Z,26.90
2018-05-31T12:34:28.230Z,27.10
2018-05-31T12:36:57.200Z,26.90
2018-05-31T12:39:24.684Z,26.90
2018-05-31T12:41:52.905Z,26.80
2018-05-31T12:44:20.380Z,26.80
2018-05-31T12:46:48.548Z,26.80
2018-05-31T12:49:16.009Z,26.90
2018-05-31T12:51:43.493Z,27.20
2018-05-31T12:54:11.719Z,28.00
2018-05-31T12:56:39.180Z,27.90
2018-05-31T12:59:06.664Z,28.10
2018-05-31T13:01:34.897Z,27.90
2018-05-31T13:04:02.365Z,27.90
2018-05-31T13:06:29.970Z,28.00
2018-05-31T13:08:57.430Z,28.70
2018-05-31T13:11:25.661Z,28.40
2018-05-31T13:13:53.145Z,28.40
2018-05-31T13:16:20.615Z,28.30
2018-05-31T13:18:48.874Z,28.00
2018-05-31T13:21:16.349Z,28.00
2018-05-31T13:23:44.590Z,29.00
2018-05-31T13:26:12.061Z,29.10
2018-05-31T13:28:39.551Z,29.20
2018-05-31T13:31:07.772Z,29.00
2018-05-31T13:33:35.249Z,29.00
2018-05-31T13:36:02.729Z,29.30
2018-05-31T13:38:30.381Z,29.30
2018-05-31T13:40:57.865Z,29.10
2018-05-31T13:43:26.085Z,28.30
2018-05-31T13:45:53.574Z,28.30
2018-05-31T13:48:21.813Z,28.10
2018-05-31T13:50:49.293Z,28.10
2018-05-31T13:53:16.781Z,28.00
2018-05-31T13:55:45.013Z,28.90
2018-05-31T13:58:12.510Z,28.90
2018-05-31T14:00:41.642Z,28.10
2018-05-31T14:03:09.121Z,28.10
2018-05-31T14:05:36.812Z,27.90
2018-05-31T14:08:04.298Z,27.90
2018-05-31T14:10:31.759Z,27.80
2018-05-31T14:12:59.354Z,27.90
2018-05-31T14:15:26.809Z,27.80
2018-05-31T14:17:54.269Z,27.80
2018-05-31T14:20:21.901Z,27.80
2018-05-31T14:22:49.374Z,27.90
2018-05-31T14:25:16.854Z,28.20
2018-05-31T14:27:45.837Z,28.60
2018-05-31T14:30:13.313Z,28.60
2018-05-31T14:32:40.798Z,28.50
2018-05-31T14:35:09.064Z,28.50
2018-05-31T14:37:36.482Z,28.50
2018-05-31T14:40:04.156Z,28.70
2018-05-31T14:42:32.398Z,28.00
2018-05-31T14:44:59.852Z,28.00
2018-05-31T14:47:27.345Z,28.20
2018-05-31T14:49:54.817Z,28.40
2018-05-31T14:52:23.037Z,29.10
2018-05-31T14:54:50.521Z,29.10
2018-05-31T14:57:17.992Z,29.20
2018-05-31T14:59:45.654Z,28.60
2018-05-31T15:02:13.937Z,28.10
2018-05-31T15:04:42.175Z,28.40
2018-05-31T15:07:09.769Z,28.40
2018-05-31T15:09:38.029Z,28.60
2018-05-31T15:12:05.521Z,28.60
2018-05-31T15:14:33.989Z,28.80
2018-05-31T15:17:02.228Z,28.60
2018-05-31T15:19:29.699Z,28.60
2018-05-31T15:21:57.380Z,28.60
2018-05-31T15:24:25.647Z,28.50
2018-05-31T15:26:53.105Z,28.50
2018-05-31T15:29:20.773Z,28.10
2018-05-31T15:31:48.997Z,28.40
2018-05-31T15:34:16.539Z,28.50
2018-05-31T15:36:44.231Z,28.10
2018-05-31T15:39:11.686Z,28.10
2018-05-31T15:41:39.149Z,28.30
2018-05-31T15:44:06.853Z,28.60
2018-05-31T15:46:35.106Z,28.20
2018-05-31T15:49:02.557Z,28.20
2018-05-31T15:51:30.217Z,28.10
2018-05-31T15:53:57.693Z,28.00
2018-05-31T15:56:25.916Z,28.10
2018-05-31T15:58:53.408Z,28.10
2018-05-31T16:01:20.879Z,28.20
2018-05-31T16:03:49.105Z,28.20
2018-05-31T16:06:16.598Z,28.20
2018-05-31T16:08:44.058Z,28.20
2018-05-31T16:11:12.331Z,28.30
2018-05-31T16:13:39.817Z,28.30
2018-05-31T16:16:07.300Z,28.30
2018-05-31T16:18:34.779Z,28.30
2018-05-31T16:21:02.251Z,28.30
2018-05-31T16:23:31.221Z,28.00
2018-05-31T16:25:58.910Z,28.00
2018-05-31T16:28:26.413Z,28.10
2018-05-31T16:30:53.870Z,28.00
2018-05-31T16:33:21.376Z,28.00
2018-05-31T16:35:48.832Z,28.00
2018-05-31T16:38:16.289Z,27.90
2018-05-31T16:40:43.793Z,27.70
2018-05-31T16:43:11.245Z,27.70
2018-05-31T16:45:38.730Z,27.70
2018-05-31T16:48:06.427Z,27.70
2018-05-31T16:50:33.885Z,27.60
2018-05-31T16:53:01.379Z,27.50
2018-05-31T16:55:28.856Z,27.50
2018-05-31T16:57:56.324Z,27.50
2018-05-31T17:00:23.782Z,27.30
2018-05-31T17:02:51.396Z,27.30
2018-05-31T17:05:18.897Z,27.30
2018-05-31T17:07:46.372Z,27.30
2018-05-31T17:10:15.369Z,27.40
2018-05-31T17:12:42.839Z,27.40
2018-05-31T17:15:11.082Z,27.30
2018-05-31T17:17:38.773Z,27.20
2018-05-31T17:20:06.994Z,27.20
2018-05-31T17:22:34.457Z,27.20
2018-05-31T17:25:02.117Z,27.20
2018-05-31T17:27:29.577Z,27.20
2018-05-31T17:29:57.049Z,27.10
2018-05-31T17:32:24.728Z,27.00
2018-05-31T17:34:52.193Z,26.90
2018-05-31T17:37:19.649Z,26.80
2018-05-31T17:39:47.285Z,26.80
2018-05-31T17:42:14.777Z,26.80
2018-05-31T17:44:43.017Z,26.70
2018-05-31T17:47:10.480Z,26.70
2018-05-31T17:49:37.944Z,26.60
2018-05-31T17:52:05.416Z,26.60
2018-05-31T17:54:33.901Z,26.40
2018-05-31T17:57:02.145Z,26.30
2018-05-31T17:59:29.593Z,26.30
2018-05-31T18:01:57.100Z,26.30
2018-05-31T18:04:24.643Z,26.30
2018-05-31T18:06:52.113Z,26.20
2018-05-31T18:09:19.749Z,26.10
2018-05-31T18:11:47.220Z,26.10
2018-05-31T18:14:15.483Z,26.00
2018-05-31T18:16:42.950Z,26.00
2018-05-31T18:19:11.193Z,25.90
2018-05-31T18:21:38.886Z,25.90
2018-05-31T18:24:07.213Z,25.70
2018-05-31T18:26:34.662Z,25.70
2018-05-31T18:29:02.153Z,25.60
2018-05-31T18:31:29.626Z,25.40
2018-05-31T18:33:57.105Z,25.40
2018-05-31T18:36:24.836Z,25.30
2018-05-31T18:38:53.070Z,25.20
2018-05-31T18:41:20.575Z,25.20
2018-05-31T18:43:49.057Z,25.10
2018-05-31T18:46:16.525Z,25.00
2018-05-31T18:48:44.793Z,25.00
2018-05-31T18:51:19.878Z,24.90
2018-05-31T18:53:47.330Z,24.90
2018-05-31T18:56:14.807Z,24.80
2018-05-31T18:58:42.288Z,24.80
2018-05-31T19:01:09.845Z,24.70
2018-05-31T19:03:37.335Z,24.60
2018-05-31T19:06:04.825Z,24.50
2018-05-31T19:08:32.312Z,24.40
2018-05-31T19:10:59.793Z,24.40
2018-05-31T19:13:33.857Z,24.20
2018-05-31T19:16:01.341Z,24.20
2018-05-31T19:18:35.551Z,24.00
2018-05-31T19:21:03.799Z,23.90
2018-05-31T19:23:31.276Z,23.90
2018-05-31T19:25:58.770Z,23.80
2018-05-31T19:28:27.006Z,23.70
2018-05-31T19:31:00.210Z,23.70
2018-05-31T19:33:27.712Z,23.60
2018-05-31T19:36:00.960Z,23.60
2018-05-31T19:38:29.205Z,23.40
2018-05-31T19:40:56.688Z,23.40
2018-05-31T19:43:31.378Z,23.30
2018-05-31T19:45:58.853Z,23.30
2018-05-31T19:48:26.320Z,23.20
2018-05-31T19:50:53.813Z,23.10
2018-05-31T19:53:27.087Z,23.00
2018-05-31T19:55:54.573Z,22.90
2018-05-31T19:58:27.670Z,22.80
2018-05-31T20:01:01.017Z,22.70
2018-05-31T20:03:31.119Z,22.60
2018-05-31T20:05:58.590Z,22.60
2018-05-31T20:08:26.084Z,22.50
2018-05-31T20:10:53.546Z,22.30
2018-05-31T20:13:21.030Z,22.30
2018-05-31T20:15:48.775Z,22.30
2018-05-31T20:18:16.240Z,22.30
2018-05-31T20:20:43.729Z,22.10
2018-05-31T20:23:11.409Z,21.90
2018-05-31T20:25:39.650Z,21.70
2018-05-31T20:28:07.203Z,21.70
2018-05-31T20:30:34.704Z,21.70
2018-05-31T20:33:02.952Z,21.70
2018-05-31T20:35:30.434Z,21.70
2018-05-31T20:37:58.109Z,21.70
2018-05-31T20:40:26.336Z,21.50
2018-05-31T20:42:53.806Z,21.50
2018-05-31T20:45:21.478Z,21.40
2018-05-31T20:47:48.943Z,21.30
2018-05-31T20:50:17.180Z,21.20
2018-05-31T20:52:44.705Z,21.10
2018-05-31T20:55:12.166Z,21.00
2018-05-31T20:57:39.626Z,21.10
2018-05-31T21:00:07.360Z,21.10
2018-05-31T21:02:35.782Z,21.00
2018-05-31T21:05:03.450Z,21.00
2018-05-31T21:07:31.405Z,21.00
2018-05-31T21:09:59.713Z,21.00
2018-05-31T21:12:27.198Z,20.90
2018-05-31T21:14:55.593Z,20.90
2018-05-31T21:17:23.049Z,20.90
2018-05-31T21:19:50.536Z,20.80
2018-05-31T21:22:18.026Z,20.80
2018-05-31T21:24:45.485Z,20.80
2018-05-31T21:27:12.966Z,20.70
2018-05-31T21:29:41.200Z,20.80
2018-05-31T21:32:08.685Z,20.70
2018-05-31T21:34:36.347Z,20.70
2018-05-31T21:37:03.806Z,20.60
2018-05-31T21:39:32.046Z,20.60
2018-05-31T21:41:59.521Z,20.50
2018-05-31T21:44:26.986Z,20.60
2018-05-31T21:46:54.486Z,20.70
2018-05-31T21:49:21.968Z,20.70
2018-05-31T21:51:49.440Z,20.80
2018-05-31T21:54:17.684Z,20.90
2018-05-31T21:56:45.160Z,20.80
2018-05-31T21:59:12.637Z,20.90
2018-05-31T22:01:40.881Z,20.90
2018-05-31T22:04:08.517Z,20.90
2018-05-31T22:06:35.988Z,21.00
2018-05-31T22:09:03.450Z,21.10
2018-05-31T22:11:31.125Z,21.00
2018-05-31T22:13:58.589Z,21.00
2018-05-31T22:16:26.041Z,21.00
2018-05-31T22:18:53.538Z,21.00
2018-05-31T22:21:21.000Z,21.00
2018-05-31T22:23:48.637Z,20.90
2018-05-31T22:26:16.109Z,20.90
2018-05-31T22:28:44.350Z,20.70
2018-05-31T22:31:12.021Z,20.70
2018-05-31T22:33:39.494Z,20.70
2018-05-31T22:36:07.725Z,20.50
2018-05-31T22:38:35.217Z,20.50
2018-05-31T22:41:02.695Z,20.50
2018-05-31T22:43:30.946Z,20.50
2018-05-31T22:45:58.645Z,20.50
2018-05-31T22:48:26.076Z,20.40
2018-05-31T22:50:54.313Z,20.20
2018-05-31T22:53:21.793Z,20.20
2018-05-31T22:55:49.260Z,20.20
2018-05-31T22:58:17.492Z,20.10
2018-05-31T23:00:45.175Z,20.10
2018-05-31T23:03:12.649Z,20.00
2018-05-31T23:05:40.877Z,20.00
2018-05-31T23:08:08.370Z,20.00
2018-05-31T23:10:35.845Z,20.10
2018-05-31T23:13:04.090Z,20.10
2018-05-31T23:15:31.574Z,20.00
2018-05-31T23:17:59.132Z,20.00
2018-05-31T23:20:27.361Z,19.90
2018-05-31T23:22:55.059Z,19.80
2018-05-31T23:25:22.529Z,19.90
2018-05-31T23:27:50.769Z,19.90
2018-05-31T23:30:18.449Z,19.80
2018-05-31T23:32:45.920Z,19.80
2018-05-31T23:35:14.158Z,19.70
2018-05-31T23:37:41.632Z,19.70
2018-05-31T23:40:09.106Z,19.60
2018-05-31T23:42:37.341Z,19.50
2018-05-31T23:45:04.829Z,19.50
2018-05-31T23:47:32.298Z,19.50
2018-05-31T23:50:00.529Z,19.40
2018-05-31T23:52:28.017Z,19.40
2018-05-31T23:54:56.244Z,19.30
2018-05-31T23:57:23.703Z,19.30
2018-05-31T23:59:51.190Z,19.20
